Aviation-Friends-Hamburg. Das neue Portal der Airbus-Freunde für Hamburg und Norddeutschland

Normale Version: Runwaykonfiguration
Du siehst gerade eine vereinfachte Darstellung unserer Inhalte. Normale Ansicht mit richtiger Formatierung.
Aktuelle Runwaykonfiguration werden hier gepostet.
EDDH/HAM am 15.10.2018 - 0835
Landing : 15

Takeoff :  23

Gruß

Helmut


Data at: 0635 UTC 15 Oct 2018
METAR for:
EDDH (Hamburg Arpt, --, DL)
Text:
EDDH 150620Z 13006KT CAVOK 12/08 Q1012 NOSIG
Temperature:
12.0°C ( 54°F)
Dewpoint:
8.0°C ( 46°F) [RH = 76%]
Pressure (altimeter):
29.88 inches Hg (1012.0 mb)
Winds:
from the SE (130 degrees) at 7 MPH (6 knots; 3.1 m/s)
Visibility:
6 or more sm (10+ km)
Ceiling:
ceiling and visibility are OK
Clouds:
unknown

Zeit: 08:35 (06:35 UTC)
Prognose
Neuester Wetterbericht von vor 1 Stunde und 35 Minuten, um 05:00 UTC
Gültige Prognose vom 15 um 06 UTC bis 16 um 12 UTC
Wind 7 kt aus Süd/Südost
Sichtweite 10 km oder mehr
keine Wolken unter 1500 m und keine Kumulonimbus oder Gewitterwolken
Übergehend zu
vom 15 um 17 UTC bis 15 um 19 UTC

Wind 2 kt aus unterschiedlichen Richtungen
Übergehend zu
vom 16 um 06 UTC bis 16 um 08 UTC

Wind 5 kt aus West/Südwest
TAF: EDDH 150500Z 1506/1612 16007KT CAVOK BECMG 1517/1519 VRB02KT BECMG 1606/1608 24005KT